Time;durP1;ratioP1;P1;durP2;ratioP2;P2;SDS_P1;SDS_P2;PMS_P1;PMS_P2;Temp;Humidity;BMP_temperature;BMP_pressure;BME280_temperature;BME280_humidity;BME280_pressure;Samples;Min_cycle;Max_cycle;Signal;HPM_P1;HPM_P2
2021/03/10 00:00:04;;;;;;;20.08;16.48;;;;;;;;;;4969818;28;20073;-71
2021/03/10 00:02:30;;;;;;;22.67;16.80;;;;;;;;;;4965610;28;20051;-71
2021/03/10 00:04:56;;;;;;;21.75;17.00;;;;;;;;;;4968685;28;20043;-72
2021/03/10 00:07:24;;;;;;;21.48;16.58;;;;;;;;;;4964876;28;20530;-72
2021/03/10 00:09:50;;;;;;;19.80;16.25;;;;;;;;;;4971232;28;20101;-72
2021/03/10 00:12:17;;;;;;;19.65;16.10;;;;;;;;;;4970641;28;20055;-71
2021/03/10 00:14:43;;;;;;;18.02;14.63;;;;;;;;;;4967186;28;20194;-72
2021/03/10 00:17:09;;;;;;;19.85;16.50;;;;;;;;;;4968059;28;20078;-73
2021/03/10 00:19:35;;;;;;;17.67;15.23;;;;;;;;;;4965399;28;20043;-73
2021/03/10 00:22:02;;;;;;;18.42;15.48;;;;;;;;;;4958117;28;20499;-73
2021/03/10 00:24:28;;;;;;;19.42;14.65;;;;;;;;;;4968499;28;20046;-73
2021/03/10 00:26:54;;;;;;;18.33;14.10;;;;;;;;;;4966201;28;20554;-73
2021/03/10 00:29:20;;;;;;;18.38;15.07;;;;;;;;;;4969889;28;20512;-73
2021/03/10 00:31:46;;;;;;;21.27;15.98;;;;;;;;;;4963426;28;20062;-73
2021/03/10 00:34:12;;;;;;;19.30;16.13;;;;;;;;;;4962304;28;20145;-73
2021/03/10 00:36:39;;;;;;;18.25;15.60;;;;;;;;;;4968534;28;20043;-73
2021/03/10 00:39:05;;;;;;;18.15;15.73;;;;;;;;;;4973044;28;20049;-73
2021/03/10 00:41:31;;;;;;;17.55;14.80;;;;;;;;;;4992430;28;20412;-73
2021/03/10 00:43:57;;;;;;;18.45;15.70;;;;;;;;;;4991090;28;20429;-73
2021/03/10 00:46:24;;;;;;;16.98;14.13;;;;;;;;;;5007289;28;20061;-74
2021/03/10 00:48:50;;;;;;;17.05;14.68;;;;;;;;;;5008648;28;20420;-73
2021/03/10 00:51:17;;;;;;;18.63;14.77;;;;;;;;;;5009381;28;20045;-73
2021/03/10 00:53:43;;;;;;;16.20;13.98;;;;;;;;;;4979203;28;20310;-71
2021/03/10 00:56:09;;;;;;;16.77;14.63;;;;;;;;;;5010191;28;20476;-70
2021/03/10 00:58:35;;;;;;;16.00;13.75;;;;;;;;;;5009766;28;20455;-70
2021/03/10 01:01:01;;;;;;;14.48;12.57;;;;;;;;;;5009220;28;20390;-71
2021/03/10 01:03:28;;;;;;;16.85;13.57;;;;;;;;;;4996659;28;20045;-71
2021/03/10 01:05:54;;;;;;;15.15;13.50;;;;;;;;;;5007919;28;20434;-71
2021/03/10 01:08:20;;;;;;;20.02;15.20;;;;;;;;;;5006353;28;21526;-71
2021/03/10 01:10:47;;;;;;;17.45;14.68;;;;;;;;;;4997962;28;20080;-72
2021/03/10 01:13:14;;;;;;;16.25;14.07;;;;;;;;;;5010480;28;20045;-73
2021/03/10 01:15:40;;;;;;;24.30;13.23;;;;;;;;;;4995972;28;20066;-72
2021/03/10 01:18:06;;;;;;;15.43;13.25;;;;;;;;;;5012222;28;20045;-72
2021/03/10 01:20:32;;;;;;;18.33;13.82;;;;;;;;;;5013733;28;20088;-72
2021/03/10 01:22:58;;;;;;;15.27;13.07;;;;;;;;;;5012180;28;20038;-72
2021/03/10 01:25:25;;;;;;;16.75;14.07;;;;;;;;;;4993126;28;20057;-72
2021/03/10 01:27:51;;;;;;;15.38;12.90;;;;;;;;;;5011842;28;20046;-72
2021/03/10 01:30:20;;;;;;;17.35;14.43;;;;;;;;;;5010736;28;20385;-72
2021/03/10 01:32:46;;;;;;;16.40;13.65;;;;;;;;;;5010360;28;20065;-73
2021/03/10 01:35:13;;;;;;;14.65;12.18;;;;;;;;;;4994686;28;20038;-72
2021/03/10 01:37:39;;;;;;;15.70;12.82;;;;;;;;;;4997460;28;20034;-73
2021/03/10 01:40:08;;;;;;;16.40;13.45;;;;;;;;;;5009738;28;20041;-72
2021/03/10 01:42:34;;;;;;;17.85;13.63;;;;;;;;;;5013559;28;20049;-72
2021/03/10 01:45:00;;;;;;;16.23;13.73;;;;;;;;;;4998439;28;20037;-72
2021/03/10 01:47:27;;;;;;;17.00;14.30;;;;;;;;;;5005360;28;20041;-72
2021/03/10 01:49:53;;;;;;;16.55;14.43;;;;;;;;;;5010532;28;20072;-72
2021/03/10 01:52:19;;;;;;;15.93;13.65;;;;;;;;;;4995039;28;20045;-72
2021/03/10 01:54:45;;;;;;;17.10;13.48;;;;;;;;;;5009684;28;20041;-72
2021/03/10 01:57:11;;;;;;;14.18;12.57;;;;;;;;;;4995308;28;20485;-72
2021/03/10 01:59:38;;;;;;;17.98;13.85;;;;;;;;;;5008509;28;20039;-72
2021/03/10 02:02:04;;;;;;;18.73;14.23;;;;;;;;;;5009767;28;20130;-72
2021/03/10 02:04:30;;;;;;;16.67;13.63;;;;;;;;;;5010847;28;20061;-72
2021/03/10 02:07:04;;;;;;;20.13;15.73;;;;;;;;;;4992263;28;20050;-72
2021/03/10 02:09:38;;;;;;;17.45;14.52;;;;;;;;;;5004147;28;20544;-70
2021/03/10 02:12:04;;;;;;;;;;;;;;;;;;5014178;28;20379;-70
2021/03/10 02:14:33;;;;;;;23.92;16.48;;;;;;;;;;5011649;28;20004;-70
2021/03/10 02:17:02;;;;;;;21.15;16.67;;;;;;;;;;5011114;28;20141;-72
2021/03/10 02:19:28;;;;;;;23.52;17.90;;;;;;;;;;5010285;28;20038;-71
2021/03/10 02:22:07;;;;;;;22.10;17.80;;;;;;;;;;5011312;28;20052;-70
2021/03/10 02:24:38;;;;;;;23.23;18.60;;;;;;;;;;5009719;28;20038;-71
2021/03/10 02:27:32;;;;;;;24.50;17.70;;;;;;;;;;5010367;28;20390;-71
2021/03/10 02:30:01;;;;;;;25.25;19.23;;;;;;;;;;5011226;28;20034;-70
2021/03/10 02:32:28;;;;;;;23.33;18.67;;;;;;;;;;5009735;28;20070;-70
2021/03/10 02:34:54;;;;;;;24.73;19.05;;;;;;;;;;5009254;28;20046;-70
2021/03/10 02:37:21;;;;;;;22.58;17.45;;;;;;;;;;5011376;28;20120;-70
2021/03/10 02:39:47;;;;;;;23.13;17.60;;;;;;;;;;5010210;28;20057;-70
2021/03/10 02:42:13;;;;;;;25.77;17.20;;;;;;;;;;4995216;28;20406;-71
2021/03/10 02:44:40;;;;;;;25.67;17.83;;;;;;;;;;5010317;28;20049;-71
2021/03/10 02:47:06;;;;;;;23.73;16.65;;;;;;;;;;5009987;28;20049;-71
2021/03/10 02:49:34;;;;;;;24.55;16.48;;;;;;;;;;5009703;28;20048;-71
2021/03/10 02:52:00;;;;;;;22.13;16.10;;;;;;;;;;5007871;28;20046;-71
2021/03/10 02:54:27;;;;;;;24.27;16.60;;;;;;;;;;5004552;28;20124;-71
2021/03/10 02:56:53;;;;;;;23.70;17.35;;;;;;;;;;5009600;28;20046;-71
2021/03/10 02:59:20;;;;;;;22.85;18.10;;;;;;;;;;5011092;28;20057;-70
2021/03/10 03:01:46;;;;;;;23.83;17.40;;;;;;;;;;5007478;28;20045;-71
2021/03/10 03:04:12;;;;;;;23.75;18.25;;;;;;;;;;5008289;28;20489;-70
2021/03/10 03:06:38;;;;;;;21.73;17.85;;;;;;;;;;5011375;28;20447;-71
2021/03/10 03:09:06;;;;;;;23.05;17.70;;;;;;;;;;5005830;28;20046;-72
2021/03/10 03:11:32;;;;;;;21.60;17.17;;;;;;;;;;5000550;28;20042;-71
2021/03/10 03:14:02;;;;;;;25.77;19.15;;;;;;;;;;5010308;28;20229;-71
2021/03/10 03:16:29;;;;;;;23.30;17.73;;;;;;;;;;5010974;28;20041;-71
2021/03/10 03:18:55;;;;;;;22.42;17.50;;;;;;;;;;5010031;28;20045;-72
2021/03/10 03:21:22;;;;;;;22.23;16.35;;;;;;;;;;5006771;28;20065;-71
2021/03/10 03:23:49;;;;;;;22.60;17.63;;;;;;;;;;5010993;28;20049;-73
2021/03/10 03:26:19;;;;;;;22.33;17.45;;;;;;;;;;5010601;28;20042;-71
2021/03/10 03:28:46;;;;;;;24.42;18.00;;;;;;;;;;5008177;28;20422;-71
2021/03/10 03:31:14;;;;;;;22.35;17.35;;;;;;;;;;4996601;28;20100;-71
2021/03/10 03:33:41;;;;;;;23.45;17.73;;;;;;;;;;5005931;28;20038;-71
2021/03/10 03:36:08;;;;;;;21.52;17.33;;;;;;;;;;5009841;28;20481;-71
2021/03/10 03:38:35;;;;;;;22.67;17.25;;;;;;;;;;5009158;28;20037;-72
2021/03/10 03:41:01;;;;;;;21.23;16.75;;;;;;;;;;5009999;28;20125;-71
2021/03/10 03:43:28;;;;;;;23.58;16.58;;;;;;;;;;5012228;28;20042;-72
2021/03/10 03:45:54;;;;;;;21.75;16.63;;;;;;;;;;5008187;28;20503;-73
2021/03/10 03:48:21;;;;;;;21.30;16.42;;;;;;;;;;5007501;28;20042;-74
2021/03/10 03:50:48;;;;;;;22.17;16.50;;;;;;;;;;4998238;28;20401;-73
2021/03/10 03:53:15;;;;;;;23.67;17.90;;;;;;;;;;4991219;28;20413;-72
2021/03/10 03:55:41;;;;;;;21.73;16.65;;;;;;;;;;4975317;28;20440;-71
2021/03/10 03:58:08;;;;;;;21.88;17.55;;;;;;;;;;4992285;28;20084;-71
2021/03/10 04:00:34;;;;;;;24.75;17.13;;;;;;;;;;5009290;28;20465;-71
2021/03/10 04:03:00;;;;;;;23.55;16.95;;;;;;;;;;5009322;28;20053;-71
2021/03/10 04:05:27;;;;;;;22.48;17.90;;;;;;;;;;4997900;28;20100;-71
2021/03/10 04:07:57;;;;;;;23.65;17.85;;;;;;;;;;5007265;28;20046;-71
2021/03/10 04:10:27;;;;;;;25.27;18.17;;;;;;;;;;5003673;28;20053;-71
2021/03/10 04:12:53;;;;;;;27.67;18.67;;;;;;;;;;5010766;28;20551;-71
2021/03/10 04:15:20;;;;;;;26.17;18.90;;;;;;;;;;5006448;28;20043;-72
2021/03/10 04:17:46;;;;;;;25.02;18.42;;;;;;;;;;4992676;28;20405;-72
2021/03/10 04:20:14;;;;;;;24.42;18.25;;;;;;;;;;5011015;28;20065;-70
2021/03/10 04:22:40;;;;;;;26.98;19.40;;;;;;;;;;5009727;28;20396;-71
2021/03/10 04:25:07;;;;;;;22.65;18.63;;;;;;;;;;5007856;28;20309;-71
2021/03/10 04:27:33;;;;;;;25.70;19.33;;;;;;;;;;5009807;28;20050;-71
2021/03/10 04:29:59;;;;;;;25.10;19.30;;;;;;;;;;5007791;28;20098;-71
2021/03/10 04:32:25;;;;;;;25.58;18.95;;;;;;;;;;5009411;28;20045;-71
2021/03/10 04:34:51;;;;;;;25.48;18.80;;;;;;;;;;5010950;28;20101;-71
2021/03/10 04:37:17;;;;;;;22.90;17.10;;;;;;;;;;5009886;28;20424;-71
2021/03/10 04:39:44;;;;;;;26.08;19.05;;;;;;;;;;5004839;28;20061;-72
2021/03/10 04:42:10;;;;;;;22.75;18.15;;;;;;;;;;4992781;28;20420;-71
2021/03/10 04:44:36;;;;;;;23.80;18.85;;;;;;;;;;5010123;28;20386;-71
2021/03/10 04:47:02;;;;;;;24.85;18.85;;;;;;;;;;4996942;28;20058;-72
2021/03/10 04:49:28;;;;;;;26.25;18.73;;;;;;;;;;4974073;28;20141;-72
2021/03/10 04:51:55;;;;;;;24.40;17.77;;;;;;;;;;5014813;28;20042;-71
2021/03/10 04:54:21;;;;;;;22.70;17.30;;;;;;;;;;5013531;28;20050;-71
2021/03/10 04:56:47;;;;;;;21.67;16.73;;;;;;;;;;5013633;28;20052;-71
2021/03/10 04:59:13;;;;;;;24.65;18.52;;;;;;;;;;4994506;28;20133;-71
2021/03/10 05:01:40;;;;;;;24.85;18.63;;;;;;;;;;5008866;28;20048;-72
2021/03/10 05:04:06;;;;;;;24.85;19.23;;;;;;;;;;5010223;28;20038;-72
2021/03/10 05:06:32;;;;;;;24.30;17.52;;;;;;;;;;5011310;28;20046;-71
2021/03/10 05:08:58;;;;;;;24.40;17.85;;;;;;;;;;4993704;28;20056;-71
2021/03/10 05:11:25;;;;;;;24.00;18.38;;;;;;;;;;5011152;28;20111;-71
2021/03/10 05:13:51;;;;;;;25.38;18.52;;;;;;;;;;5014440;28;20062;-71
2021/03/10 05:16:17;;;;;;;24.23;17.95;;;;;;;;;;5001214;28;20057;-71
2021/03/10 05:18:43;;;;;;;26.25;18.85;;;;;;;;;;5012669;28;20045;-72
2021/03/10 05:21:10;;;;;;;23.67;17.70;;;;;;;;;;5001513;28;20038;-71
2021/03/10 05:23:41;;;;;;;24.10;18.17;;;;;;;;;;5011644;28;20041;-71
2021/03/10 05:26:07;;;;;;;29.90;20.90;;;;;;;;;;5012801;28;20042;-72
2021/03/10 05:28:34;;;;;;;26.48;19.20;;;;;;;;;;4997227;28;20105;-73
2021/03/10 05:31:00;;;;;;;25.92;19.55;;;;;;;;;;4993789;28;20045;-72
2021/03/10 05:33:26;;;;;;;25.60;19.27;;;;;;;;;;5014170;28;20049;-71
2021/03/10 05:35:53;;;;;;;27.25;18.88;;;;;;;;;;5009331;28;20073;-72
2021/03/10 05:38:19;;;;;;;28.77;19.42;;;;;;;;;;5012697;28;20062;-72
2021/03/10 05:40:45;;;;;;;27.65;21.10;;;;;;;;;;5011254;28;20525;-72
2021/03/10 05:43:12;;;;;;;28.60;19.98;;;;;;;;;;4995109;28;20393;-72
2021/03/10 05:45:38;;;;;;;28.70;20.73;;;;;;;;;;5013594;28;20070;-72
2021/03/10 05:48:06;;;;;;;28.20;20.60;;;;;;;;;;5009726;28;20108;-73
2021/03/10 05:50:32;;;;;;;32.25;22.52;;;;;;;;;;5009670;28;20045;-72
2021/03/10 05:52:59;;;;;;;31.65;22.40;;;;;;;;;;4993283;28;20053;-74
2021/03/10 05:55:27;;;;;;;30.05;22.48;;;;;;;;;;4991195;28;20125;-72
2021/03/10 05:57:53;;;;;;;29.50;21.27;;;;;;;;;;5009782;28;20045;-73
2021/03/10 06:00:19;;;;;;;33.72;23.65;;;;;;;;;;4993108;28;20054;-73
2021/03/10 06:02:45;;;;;;;31.13;22.63;;;;;;;;;;5002450;28;20074;-73
2021/03/10 06:05:25;;;;;;;31.40;23.45;;;;;;;;;;5007360;28;20507;-72
2021/03/10 06:08:05;;;;;;;31.45;23.20;;;;;;;;;;5011645;28;20064;-72
2021/03/10 06:10:41;;;;;;;30.77;22.17;;;;;;;;;;5012349;28;20045;-72
2021/03/10 06:13:37;;;;;;;36.08;24.27;;;;;;;;;;4984211;28;20049;-72
2021/03/10 06:16:03;;;;;;;33.25;23.63;;;;;;;;;;4973315;28;20092;-72
2021/03/10 06:18:30;;;;;;;39.78;26.48;;;;;;;;;;5010740;28;20111;-73
2021/03/10 06:21:06;;;;;;;33.65;23.75;;;;;;;;;;5010805;28;20082;-73
2021/03/10 06:23:33;;;;;;;35.15;24.50;;;;;;;;;;4982959;28;20133;-72
2021/03/10 06:26:00;;;;;;;37.40;25.50;;;;;;;;;;5008797;28;20041;-74
2021/03/10 06:28:35;;;;;;;34.15;23.85;;;;;;;;;;5002692;28;20041;-72
2021/03/10 06:31:01;;;;;;;33.85;24.23;;;;;;;;;;4997823;28;20053;-72
2021/03/10 06:33:27;;;;;;;34.88;24.45;;;;;;;;;;4993651;28;20133;-74
2021/03/10 06:35:54;;;;;;;37.05;26.27;;;;;;;;;;5004750;28;20042;-74
2021/03/10 06:38:20;;;;;;;38.17;26.50;;;;;;;;;;5001977;28;20085;-72
2021/03/10 06:40:49;;;;;;;36.65;26.10;;;;;;;;;;4982634;28;20062;-74
2021/03/10 06:43:16;;;;;;;36.58;26.00;;;;;;;;;;4969702;28;20050;-72
2021/03/10 06:45:42;;;;;;;38.80;26.95;;;;;;;;;;4973806;28;20485;-72
2021/03/10 06:48:22;;;;;;;38.42;26.83;;;;;;;;;;4971074;28;20078;-72
2021/03/10 06:50:49;;;;;;;34.53;25.23;;;;;;;;;;4970456;28;20130;-72
2021/03/10 06:53:16;;;;;;;36.33;27.45;;;;;;;;;;4972794;28;20037;-72
2021/03/10 06:55:43;;;;;;;40.00;26.13;;;;;;;;;;4972493;28;20051;-72
2021/03/10 06:58:11;;;;;;;38.83;25.92;;;;;;;;;;4972168;28;20047;-72
2021/03/10 07:00:38;;;;;;;40.47;25.13;;;;;;;;;;4972967;28;20039;-72
2021/03/10 07:03:04;;;;;;;38.85;26.05;;;;;;;;;;4973886;28;20130;-75
2021/03/10 07:05:31;;;;;;;35.28;25.48;;;;;;;;;;4972300;28;20130;-72
2021/03/10 07:07:58;;;;;;;36.65;25.27;;;;;;;;;;4971423;28;20041;-72
2021/03/10 07:10:26;;;;;;;34.10;24.58;;;;;;;;;;4968450;28;20035;-72
2021/03/10 07:12:55;;;;;;;34.13;23.75;;;;;;;;;;4959907;28;20062;-71
2021/03/10 07:15:21;;;;;;;34.90;23.83;;;;;;;;;;4953918;28;20379;-71
2021/03/10 07:17:49;;;;;;;33.78;24.75;;;;;;;;;;4971719;28;20085;-75
2021/03/10 07:20:15;;;;;;;32.70;23.45;;;;;;;;;;4967827;28;20047;-75
2021/03/10 07:22:47;;;;;;;33.55;24.13;;;;;;;;;;4970036;28;20451;-72
2021/03/10 07:25:15;;;;;;;35.15;23.58;;;;;;;;;;4971182;28;20121;-76
2021/03/10 07:28:01;;;;;;;33.92;23.58;;;;;;;;;;4968384;28;20043;-75
2021/03/10 07:30:41;;;;;;;34.10;23.42;;;;;;;;;;4969120;28;20050;-75
2021/03/10 07:33:14;;;;;;;33.65;23.95;;;;;;;;;;4965368;28;20067;-73
2021/03/10 07:35:54;;;;;;;34.25;24.48;;;;;;;;;;4967451;28;20043;-73
2021/03/10 07:38:22;;;;;;;34.35;24.15;;;;;;;;;;4967788;28;20085;-75
2021/03/10 07:40:53;;;;;;;30.50;22.70;;;;;;;;;;4996696;28;20053;-74
2021/03/10 07:43:19;;;;;;;33.47;24.27;;;;;;;;;;5009677;28;20117;-76
2021/03/10 07:45:45;;;;;;;34.25;23.92;;;;;;;;;;4990832;28;20144;-73
2021/03/10 07:48:12;;;;;;;30.23;23.35;;;;;;;;;;4989557;28;20046;-71
2021/03/10 07:50:39;;;;;;;33.63;22.88;;;;;;;;;;4993757;28;20053;-71
2021/03/10 07:53:06;;;;;;;34.92;22.85;;;;;;;;;;5005930;28;20398;-71
2021/03/10 07:55:43;;;;;;;29.77;21.75;;;;;;;;;;5010748;28;20034;-70
2021/03/10 07:58:10;;;;;;;36.83;21.63;;;;;;;;;;4992456;28;20493;-71
2021/03/10 08:00:37;;;;;;;31.80;22.25;;;;;;;;;;4977245;28;20058;-71
2021/03/10 08:03:03;;;;;;;31.30;22.17;;;;;;;;;;5010887;28;20483;-70
2021/03/10 08:05:29;;;;;;;34.60;23.50;;;;;;;;;;5008036;28;20052;-71
2021/03/10 08:08:12;;;;;;;32.20;22.38;;;;;;;;;;5009246;28;20093;-70
2021/03/10 08:10:39;;;;;;;30.55;22.67;;;;;;;;;;4989825;28;20099;-72
2021/03/10 08:13:15;;;;;;;32.15;22.65;;;;;;;;;;5007074;28;20042;-74
2021/03/10 08:15:41;;;;;;;31.40;22.75;;;;;;;;;;4986881;28;20053;-74
2021/03/10 08:18:07;;;;;;;32.38;23.25;;;;;;;;;;4996982;28;20104;-72
2021/03/10 08:20:37;;;;;;;31.50;22.70;;;;;;;;;;4991141;28;20045;-71
2021/03/10 08:23:04;;;;;;;33.10;23.40;;;;;;;;;;5001685;28;20113;-72
2021/03/10 08:25:33;;;;;;;33.80;23.98;;;;;;;;;;5008237;28;20045;-71
2021/03/10 08:28:09;;;;;;;32.53;23.15;;;;;;;;;;4992267;28;20058;-71
2021/03/10 08:30:35;;;;;;;33.92;22.88;;;;;;;;;;5009911;28;20042;-71
2021/03/10 08:33:05;;;;;;;32.97;21.92;;;;;;;;;;5004408;28;20401;-71
2021/03/10 08:35:31;;;;;;;32.30;22.23;;;;;;;;;;4986695;28;20054;-71
2021/03/10 08:38:00;;;;;;;30.42;22.50;;;;;;;;;;4994096;28;20131;-71
2021/03/10 08:40:28;;;;;;;33.08;22.58;;;;;;;;;;4993058;28;20061;-71
2021/03/10 08:42:55;;;;;;;32.15;22.48;;;;;;;;;;5010925;28;20434;-71
2021/03/10 08:45:26;;;;;;;36.30;23.10;;;;;;;;;;4993515;28;20055;-71
2021/03/10 08:48:06;;;;;;;37.20;22.38;;;;;;;;;;5012064;28;20041;-71
2021/03/10 08:50:33;;;;;;;32.85;23.08;;;;;;;;;;5010861;28;20381;-72
2021/03/10 08:52:59;;;;;;;35.90;23.92;;;;;;;;;;5011976;28;20057;-71
2021/03/10 08:55:26;;;;;;;37.05;24.08;;;;;;;;;;5010760;28;20042;-72
2021/03/10 08:57:53;;;;;;;34.53;23.17;;;;;;;;;;4993779;28;20053;-71
2021/03/10 09:00:21;;;;;;;34.05;22.55;;;;;;;;;;4998996;28;20121;-72
2021/03/10 09:02:50;;;;;;;32.55;22.67;;;;;;;;;;4993442;28;20069;-71
2021/03/10 09:05:29;;;;;;;33.45;23.42;;;;;;;;;;5006204;28;20061;-68
2021/03/10 09:07:56;;;;;;;32.75;22.77;;;;;;;;;;4993610;28;20046;-69
2021/03/10 09:10:23;;;;;;;33.83;23.15;;;;;;;;;;5009826;28;20045;-70
2021/03/10 09:12:51;;;;;;;36.67;23.95;;;;;;;;;;5010919;28;20060;-70
2021/03/10 09:15:18;;;;;;;33.22;23.02;;;;;;;;;;5005347;28;20042;-70
2021/03/10 09:17:45;;;;;;;35.35;23.40;;;;;;;;;;4995262;28;20049;-70
2021/03/10 09:20:12;;;;;;;37.45;24.83;;;;;;;;;;4986900;28;20048;-70
2021/03/10 09:22:43;;;;;;;38.80;24.58;;;;;;;;;;4997057;28;20226;-70
2021/03/10 09:25:16;;;;;;;36.88;24.88;;;;;;;;;;4991919;28;20133;-70
2021/03/10 09:27:42;;;;;;;37.85;25.17;;;;;;;;;;5003774;28;20121;-70
2021/03/10 09:30:09;;;;;;;36.50;25.95;;;;;;;;;;5009940;28;20057;-70
2021/03/10 09:32:39;;;;;;;39.42;26.15;;;;;;;;;;5010451;28;20053;-70
2021/03/10 09:35:10;;;;;;;38.88;26.48;;;;;;;;;;5011043;28;20485;-70
2021/03/10 09:37:42;;;;;;;38.08;25.38;;;;;;;;;;5011305;28;20030;-70
2021/03/10 09:40:09;;;;;;;39.53;26.30;;;;;;;;;;4997447;28;20498;-70
2021/03/10 09:42:35;;;;;;;42.15;26.23;;;;;;;;;;5003191;28;20188;-70
2021/03/10 09:45:01;;;;;;;37.42;25.30;;;;;;;;;;5005485;28;20053;-70
2021/03/10 09:47:27;;;;;;;44.05;28.25;;;;;;;;;;5004763;28;20049;-71
2021/03/10 09:49:55;;;;;;;42.25;26.88;;;;;;;;;;5011448;28;20047;-70
2021/03/10 09:52:37;;;;;;;39.78;26.30;;;;;;;;;;5004191;28;20038;-70
2021/03/10 09:55:05;;;;;;;44.33;27.92;;;;;;;;;;4998549;28;20046;-70
2021/03/10 09:57:31;;;;;;;41.92;26.25;;;;;;;;;;5012753;28;20441;-70
2021/03/10 09:59:58;;;;;;;41.88;28.73;;;;;;;;;;5007146;28;20042;-70
2021/03/10 10:02:30;;;;;;;43.15;27.85;;;;;;;;;;5007410;28;20446;-71
2021/03/10 10:05:00;;;;;;;37.88;27.17;;;;;;;;;;4995437;28;20046;-70
2021/03/10 10:07:27;;;;;;;42.63;28.73;;;;;;;;;;4994539;28;20042;-70
2021/03/10 10:09:53;;;;;;;40.13;27.00;;;;;;;;;;4988439;28;20100;-70
2021/03/10 10:12:20;;;;;;;42.28;29.67;;;;;;;;;;5011171;28;20041;-70
2021/03/10 10:14:46;;;;;;;41.33;27.92;;;;;;;;;;5012869;28;20049;-70
2021/03/10 10:17:13;;;;;;;44.33;29.77;;;;;;;;;;4993639;28;20096;-70
2021/03/10 10:19:39;;;;;;;43.53;30.20;;;;;;;;;;4996096;28;20065;-70
2021/03/10 10:22:05;;;;;;;43.17;29.55;;;;;;;;;;5013704;28;20096;-71
2021/03/10 10:24:31;;;;;;;45.28;29.30;;;;;;;;;;4981845;28;20052;-70
2021/03/10 10:26:57;;;;;;;42.05;28.33;;;;;;;;;;5012963;28;20121;-70
2021/03/10 10:29:24;;;;;;;44.05;27.90;;;;;;;;;;4996536;28;20042;-70
2021/03/10 10:31:50;;;;;;;44.53;29.05;;;;;;;;;;4995190;28;20401;-70
2021/03/10 10:34:16;;;;;;;44.28;29.05;;;;;;;;;;5004161;28;20042;-70
2021/03/10 10:36:42;;;;;;;41.53;28.48;;;;;;;;;;4976627;28;20496;-72
2021/03/10 10:39:08;;;;;;;42.60;28.77;;;;;;;;;;5010535;28;20041;-70
2021/03/10 10:41:35;;;;;;;45.10;28.20;;;;;;;;;;4995054;28;20058;-71
2021/03/10 10:44:01;;;;;;;38.97;28.00;;;;;;;;;;5000977;28;20042;-70
2021/03/10 10:46:27;;;;;;;43.40;28.25;;;;;;;;;;5013735;28;20037;-70
2021/03/10 10:48:54;;;;;;;43.42;28.77;;;;;;;;;;4994780;28;20038;-71
2021/03/10 10:51:21;;;;;;;40.47;28.60;;;;;;;;;;5013712;28;20048;-70
2021/03/10 10:53:48;;;;;;;43.72;28.75;;;;;;;;;;5007629;28;20046;-72
2021/03/10 10:56:15;;;;;;;40.38;27.08;;;;;;;;;;5012732;28;20048;-70
2021/03/10 10:58:41;;;;;;;37.70;26.90;;;;;;;;;;5002733;28;20470;-71
2021/03/10 11:01:08;;;;;;;38.88;27.67;;;;;;;;;;4997827;28;20030;-71
2021/03/10 11:03:34;;;;;;;42.50;27.88;;;;;;;;;;4994009;28;20042;-70
2021/03/10 11:06:01;;;;;;;37.42;27.77;;;;;;;;;;4995147;28;20048;-71
2021/03/10 11:08:27;;;;;;;38.33;27.77;;;;;;;;;;4995021;28;20030;-70
2021/03/10 11:10:53;;;;;;;39.88;25.73;;;;;;;;;;5012039;28;20046;-70
2021/03/10 11:13:19;;;;;;;38.60;26.27;;;;;;;;;;4995260;28;20048;-71
2021/03/10 11:15:46;;;;;;;38.03;26.50;;;;;;;;;;4994261;28;20081;-71
2021/03/10 11:18:12;;;;;;;42.65;27.50;;;;;;;;;;4994559;28;20049;-71
2021/03/10 11:20:38;;;;;;;35.05;25.38;;;;;;;;;;5004962;28;20042;-70
2021/03/10 11:23:04;;;;;;;37.10;26.45;;;;;;;;;;4994990;28;20038;-71
2021/03/10 11:25:30;;;;;;;42.42;27.25;;;;;;;;;;4996433;28;20037;-71
2021/03/10 11:27:57;;;;;;;33.75;26.05;;;;;;;;;;4994222;28;20045;-71
2021/03/10 11:30:24;;;;;;;36.83;27.52;;;;;;;;;;5008451;28;20116;-71
2021/03/10 11:32:50;;;;;;;37.80;26.15;;;;;;;;;;5012614;28;20042;-71
2021/03/10 11:35:16;;;;;;;36.00;26.98;;;;;;;;;;4986839;28;20046;-71
2021/03/10 11:37:42;;;;;;;36.63;26.40;;;;;;;;;;4993056;28;20129;-71
2021/03/10 11:40:09;;;;;;;40.72;27.75;;;;;;;;;;4994784;28;20062;-71
2021/03/10 11:42:35;;;;;;;37.42;25.23;;;;;;;;;;4993964;28;20151;-71
2021/03/10 11:45:02;;;;;;;36.33;25.35;;;;;;;;;;4994286;28;20049;-71
2021/03/10 11:47:28;;;;;;;43.65;25.95;;;;;;;;;;5018791;28;20064;-71
2021/03/10 11:49:54;;;;;;;37.55;26.73;;;;;;;;;;4999155;28;20277;-71
2021/03/10 11:52:20;;;;;;;35.90;26.10;;;;;;;;;;4995250;28;20136;-71
2021/03/10 11:54:47;;;;;;;36.72;26.38;;;;;;;;;;4999971;28;20058;-70
2021/03/10 11:57:14;;;;;;;43.30;25.95;;;;;;;;;;4982719;28;20397;-70
2021/03/10 11:59:40;;;;;;;32.92;24.23;;;;;;;;;;5009610;28;20052;-70
2021/03/10 12:02:07;;;;;;;34.90;26.13;;;;;;;;;;4993955;28;20040;-70
2021/03/10 12:04:34;;;;;;;37.05;26.33;;;;;;;;;;5004370;28;20089;-70
2021/03/10 12:07:00;;;;;;;41.33;26.98;;;;;;;;;;4999657;28;20499;-70
2021/03/10 12:09:26;;;;;;;37.70;24.92;;;;;;;;;;5011634;28;20117;-70
2021/03/10 12:11:52;;;;;;;37.55;25.38;;;;;;;;;;4994420;28;20074;-70
2021/03/10 12:14:18;;;;;;;36.53;24.90;;;;;;;;;;5005674;28;20073;-70
2021/03/10 12:16:44;;;;;;;36.53;26.65;;;;;;;;;;5010050;28;20477;-70
2021/03/10 12:19:11;;;;;;;39.58;25.00;;;;;;;;;;5011806;28;20068;-70
2021/03/10 12:21:37;;;;;;;40.78;26.73;;;;;;;;;;5002351;28;20046;-70
2021/03/10 12:24:03;;;;;;;43.47;25.08;;;;;;;;;;4993038;28;20485;-69
2021/03/10 12:26:29;;;;;;;36.67;24.83;;;;;;;;;;4994658;28;20134;-69
2021/03/10 12:28:56;;;;;;;35.25;24.55;;;;;;;;;;4993309;28;20042;-70
2021/03/10 12:31:22;;;;;;;40.17;26.95;;;;;;;;;;4994235;28;20038;-69
2021/03/10 12:33:48;;;;;;;36.40;25.70;;;;;;;;;;4994181;28;20076;-70
2021/03/10 12:36:14;;;;;;;37.88;27.10;;;;;;;;;;4994670;28;20042;-70
2021/03/10 12:38:40;;;;;;;38.63;26.52;;;;;;;;;;4998678;28;20046;-72
2021/03/10 12:41:06;;;;;;;40.13;28.48;;;;;;;;;;5008800;28;20054;-70
2021/03/10 12:43:32;;;;;;;38.08;25.67;;;;;;;;;;5011688;28;20052;-70
2021/03/10 12:45:58;;;;;;;41.20;25.70;;;;;;;;;;5010281;28;20481;-70
2021/03/10 12:48:25;;;;;;;39.05;27.08;;;;;;;;;;5011437;28;20081;-71
2021/03/10 12:50:51;;;;;;;39.00;27.23;;;;;;;;;;5010991;28;20357;-70
2021/03/10 12:53:17;;;;;;;36.17;26.20;;;;;;;;;;5012192;28;20046;-70
2021/03/10 12:55:43;;;;;;;37.45;26.73;;;;;;;;;;4990318;28;20038;-70
2021/03/10 12:58:10;;;;;;;38.50;26.83;;;;;;;;;;5008294;28;20045;-70
2021/03/10 13:00:36;;;;;;;42.58;27.77;;;;;;;;;;5002104;28;20058;-71
2021/03/10 13:03:03;;;;;;;40.75;28.13;;;;;;;;;;5010369;28;20046;-71
2021/03/10 13:05:29;;;;;;;40.78;27.80;;;;;;;;;;4980764;28;20084;-70
2021/03/10 13:07:55;;;;;;;41.10;28.65;;;;;;;;;;5010832;28;20041;-70
2021/03/10 13:10:21;;;;;;;39.13;27.35;;;;;;;;;;4993252;28;20038;-70
2021/03/10 13:12:48;;;;;;;41.35;27.77;;;;;;;;;;4997180;28;20050;-71
2021/03/10 13:15:14;;;;;;;40.88;27.90;;;;;;;;;;5013410;28;20044;-70
2021/03/10 13:17:40;;;;;;;44.83;27.52;;;;;;;;;;4996547;28;20049;-71
2021/03/10 13:20:06;;;;;;;43.08;28.05;;;;;;;;;;5013743;28;20485;-70
2021/03/10 13:22:32;;;;;;;43.55;28.52;;;;;;;;;;5014612;28;20103;-70
2021/03/10 13:24:59;;;;;;;40.20;28.63;;;;;;;;;;4997043;28;20045;-70
2021/03/10 13:27:25;;;;;;;41.72;28.00;;;;;;;;;;5014328;28;20095;-70
2021/03/10 13:29:51;;;;;;;43.92;28.23;;;;;;;;;;5013948;28;20111;-70
2021/03/10 13:32:17;;;;;;;44.13;28.10;;;;;;;;;;5014149;28;20049;-70
2021/03/10 13:34:43;;;;;;;41.35;29.45;;;;;;;;;;4996130;28;20397;-70
2021/03/10 13:37:10;;;;;;;47.15;28.83;;;;;;;;;;5013916;28;20038;-71
2021/03/10 13:39:36;;;;;;;43.13;29.63;;;;;;;;;;4998234;28;20077;-71
2021/03/10 13:42:02;;;;;;;47.47;29.48;;;;;;;;;;5014887;28;20042;-71
2021/03/10 13:44:28;;;;;;;42.50;29.63;;;;;;;;;;5013799;28;20046;-72
2021/03/10 13:46:54;;;;;;;42.55;29.30;;;;;;;;;;5013819;28;20049;-72
2021/03/10 13:49:20;;;;;;;44.47;29.95;;;;;;;;;;4993868;28;20046;-72
2021/03/10 13:51:46;;;;;;;40.45;28.77;;;;;;;;;;4978010;28;20157;-71
2021/03/10 13:54:12;;;;;;;43.92;29.90;;;;;;;;;;4980405;28;20045;-71
2021/03/10 13:56:39;;;;;;;43.70;29.83;;;;;;;;;;5013396;28;20124;-71
2021/03/10 13:59:05;;;;;;;42.25;29.38;;;;;;;;;;5012388;28;20038;-71
2021/03/10 14:01:31;;;;;;;40.25;27.80;;;;;;;;;;4999181;28;20527;-72
2021/03/10 14:03:58;;;;;;;42.13;29.02;;;;;;;;;;4995676;28;20042;-71
2021/03/10 14:06:24;;;;;;;40.85;30.02;;;;;;;;;;5012179;28;20121;-71
2021/03/10 14:08:50;;;;;;;44.13;29.10;;;;;;;;;;5014189;28;20397;-74
2021/03/10 14:11:16;;;;;;;45.00;28.25;;;;;;;;;;4983002;28;20081;-71
2021/03/10 14:13:43;;;;;;;41.92;28.30;;;;;;;;;;4995669;28;20042;-71
2021/03/10 14:16:09;;;;;;;41.00;28.48;;;;;;;;;;5003304;28;20049;-73
2021/03/10 14:18:36;;;;;;;45.08;28.30;;;;;;;;;;4989735;28;20080;-74